LPPTLPMA

Guest
Details From LPPT - Lisboa
To LPMA - Madeira
Flight Number -
Tags decoded
Created
Modified
Stats Distance 527 nm / 976 km
Max Altitude 0 ft / 0 m
Waypoints 8
Social Downloads 0
Likes 0
Share VATSIM

Download

Looking for another format? Having issues loading an existing format? Contact us
Advertisement - Login to hide

Notes

Requested: LPPT ESP GANSU UN975 SNT LPMA

Route

LPPT ESP UN975 SNT LPMA

ID Type Via Altitude Latitude Longitude Leg Dist Tot Dist Heading (true) Name
O LPPT APT - 0 ft / 0 m 38.77856˚ -9.13515˚ - 0 nm - Lisboa
ESP VOR - 0 ft / 0 m 38.42427˚ -9.18578˚ 21 nm 21 nm 186° / 186° ESPICHEL VORTAC
GANSU FIX UN975 (AWY-HI) 0 ft / 0 m 38.00000˚ -9.81750˚ 39 nm 60 nm 230° / 229° -
NARTA FIX UN975 (AWY-HI) 0 ft / 0 m 36.05639˚ -12.55806˚ 175 nm 236 nm 229° / 228° -
GALPA FIX UN975 (AWY-HI) 0 ft / 0 m 34.39806˚ -14.73028˚ 145 nm 382 nm 228° / 226° -
RULET FIX UN975 (AWY-HI) 0 ft / 0 m 34.25167˚ -14.91556˚ 12 nm 394 nm 226° / 226° -
SNT VOR UN975 (AWY-HI) 0 ft / 0 m 33.09028˚ -16.35056˚ 100 nm 494 nm 226° / 225° PORTO SANTO VOR-DME
O LPMA APT - 0 ft / 0 m 32.69770˚ -16.77445˚ 31 nm 526 nm 222° / 222° Madeira

Altitude Profile

Advertisement - Login to hide

Weather


0- 5 10 15 20 25 30 35+ Temperature / ° C

Clouds and Precipitation
Forecast for 2017-12-14 18:00 UTC. Updated 36 minutes ago

Ground ~20,000 ft ~40,000 ft Winds

LPPT

Details ICAO LPPT (LIS)
Name Lisboa
Region Portugal
Timezone Europe/Lisbon (UTC+0.0)
Stats Elevation 374 ft / 114 m (AMSL)
Location 38.778559° -9.135146°
Runways 2
Magnetic Variation 2.364° W

METAR

LPPT 141530Z 28010KT 250V310 9999 SCT014 16/13 Q1022

Decode

TAF

TAF LPPT 141100Z 1412/1518 28010KT 9999 SCT008 BKN018 TEMPO 1412/1513 3000 -RADZ BR SCT004 BKN008 BECMG 1513/1515 34010KT SCT020

Decode

Departure Runways

ID Width Length Bearing (true) Bearing (mag) Surface Threshold Offset Overrun Length
03 148 ft / 45 m 12,518 ft / 3,815 m 22.70° 25.06° Asphalt 296 ft / 90 m 0 ft / 0 m
17 148 ft / 45 m 7,922 ft / 2,415 m 168.38° 170.74° Asphalt 0 ft / 0 m 0 ft / 0 m
21 148 ft / 45 m 12,518 ft / 3,815 m 202.72° 205.08° Asphalt 1,969 ft / 600 m 0 ft / 0 m
35 148 ft / 45 m 7,922 ft / 2,415 m 348.38° 350.74° Asphalt 492 ft / 150 m 0 ft / 0 m

LPMA

Details ICAO LPMA (FNC)
Name Madeira
Region Portugal
Timezone Atlantic/Madeira (UTC+0.0)
Stats Elevation 192 ft / 59 m (AMSL)
Location 32.697704° -16.774449°
Runways 1
Magnetic Variation 4.982° W

METAR

LPMA 141530Z 36006KT 270V040 9999 SCT016 20/13 Q1028

Decode

TAF

TAF LPMA 141100Z 1412/1512 01012KT 9999 SCT015 TEMPO 1412/1512 BKN015

Decode

Destination Runways

ID Width Length Bearing (true) Bearing (mag) Surface Threshold Offset Overrun Length
05 141 ft / 43 m 8,683 ft / 2,647 m 42.98° 47.96° Asphalt 472 ft / 144 m 0 ft / 0 m
23 141 ft / 43 m 8,683 ft / 2,647 m 222.99° 227.97° Asphalt 466 ft / 142 m 0 ft / 0 m

Popular Alternatives